sensor_id;sensor_type;location;lat;lon;timestamp;P1;durP1;ratioP1;P2;durP2;ratioP2
1328;SDS011;658;48.820;9.354;2023-07-31T00:00:00;0.77;;;0.77;;
1328;SDS011;658;48.820;9.354;2023-07-31T00:04:01;0.70;;;0.70;;
1328;SDS011;658;48.820;9.354;2023-07-31T00:08:01;0.80;;;0.80;;
1328;SDS011;658;48.820;9.354;2023-07-31T00:12:05;0.60;;;0.60;;
1328;SDS011;658;48.820;9.354;2023-07-31T00:16:06;0.93;;;0.90;;
1328;SDS011;658;48.820;9.354;2023-07-31T00:20:08;0.93;;;0.90;;
1328;SDS011;658;48.820;9.354;2023-07-31T00:24:11;0.73;;;0.60;;
1328;SDS011;658;48.820;9.354;2023-07-31T00:28:11;0.80;;;0.80;;
1328;SDS011;658;48.820;9.354;2023-07-31T00:32:12;0.90;;;0.90;;
1328;SDS011;658;48.820;9.354;2023-07-31T00:36:12;0.83;;;0.70;;
1328;SDS011;658;48.820;9.354;2023-07-31T00:40:13;0.70;;;0.70;;
1328;SDS011;658;48.820;9.354;2023-07-31T00:44:14;0.70;;;0.70;;
1328;SDS011;658;48.820;9.354;2023-07-31T00:48:14;0.80;;;0.80;;
1328;SDS011;658;48.820;9.354;2023-07-31T00:52:15;0.87;;;0.87;;
1328;SDS011;658;48.820;9.354;2023-07-31T00:56:18;0.87;;;0.87;;
1328;SDS011;658;48.820;9.354;2023-07-31T01:00:19;1.17;;;0.70;;
1328;SDS011;658;48.820;9.354;2023-07-31T01:04:20;0.97;;;0.87;;
1328;SDS011;658;48.820;9.354;2023-07-31T01:12:36;1.13;;;0.80;;
1328;SDS011;658;48.820;9.354;2023-07-31T01:16:38;0.93;;;0.83;;
1328;SDS011;658;48.820;9.354;2023-07-31T01:20:39;0.80;;;0.80;;
1328;SDS011;658;48.820;9.354;2023-07-31T01:24:54;0.90;;;0.90;;
1328;SDS011;658;48.820;9.354;2023-07-31T01:29:03;0.80;;;0.80;;
1328;SDS011;658;48.820;9.354;2023-07-31T01:33:11;0.70;;;0.63;;
1328;SDS011;658;48.820;9.354;2023-07-31T01:37:12;0.90;;;0.90;;
1328;SDS011;658;48.820;9.354;2023-07-31T01:41:16;0.60;;;0.60;;
1328;SDS011;658;48.820;9.354;2023-07-31T01:45:17;0.70;;;0.70;;
1328;SDS011;658;48.820;9.354;2023-07-31T01:49:18;0.70;;;0.70;;
1328;SDS011;658;48.820;9.354;2023-07-31T01:53:21;0.90;;;0.90;;
1328;SDS011;658;48.820;9.354;2023-07-31T01:57:21;0.73;;;0.73;;
1328;SDS011;658;48.820;9.354;2023-07-31T02:01:22;0.93;;;0.60;;
1328;SDS011;658;48.820;9.354;2023-07-31T02:05:23;1.20;;;1.00;;
1328;SDS011;658;48.820;9.354;2023-07-31T02:09:26;0.83;;;0.83;;
1328;SDS011;658;48.820;9.354;2023-07-31T02:13:26;0.60;;;0.60;;
1328;SDS011;658;48.820;9.354;2023-07-31T02:17:29;0.93;;;0.87;;
1328;SDS011;658;48.820;9.354;2023-07-31T02:21:30;0.70;;;0.70;;
1328;SDS011;658;48.820;9.354;2023-07-31T02:25:30;0.80;;;0.80;;
1328;SDS011;658;48.820;9.354;2023-07-31T02:29:31;0.93;;;0.83;;
1328;SDS011;658;48.820;9.354;2023-07-31T02:33:34;0.57;;;0.57;;
1328;SDS011;658;48.820;9.354;2023-07-31T02:37:34;0.83;;;0.83;;
1328;SDS011;658;48.820;9.354;2023-07-31T02:41:36;0.90;;;0.90;;
1328;SDS011;658;48.820;9.354;2023-07-31T02:45:36;0.83;;;0.60;;
1328;SDS011;658;48.820;9.354;2023-07-31T02:49:37;0.90;;;0.90;;
1328;SDS011;658;48.820;9.354;2023-07-31T02:53:38;1.07;;;0.97;;
1328;SDS011;658;48.820;9.354;2023-07-31T02:57:38;0.80;;;0.80;;
1328;SDS011;658;48.820;9.354;2023-07-31T03:01:39;1.00;;;0.70;;
1328;SDS011;658;48.820;9.354;2023-07-31T03:05:39;0.80;;;0.80;;
1328;SDS011;658;48.820;9.354;2023-07-31T03:09:42;0.70;;;0.70;;
1328;SDS011;658;48.820;9.354;2023-07-31T03:13:43;0.70;;;0.70;;
1328;SDS011;658;48.820;9.354;2023-07-31T03:17:43;0.73;;;0.73;;
1328;SDS011;658;48.820;9.354;2023-07-31T03:21:44;0.73;;;0.73;;
1328;SDS011;658;48.820;9.354;2023-07-31T03:26:01;0.80;;;0.80;;
1328;SDS011;658;48.820;9.354;2023-07-31T03:30:05;0.90;;;0.90;;
1328;SDS011;658;48.820;9.354;2023-07-31T03:34:06;0.77;;;0.77;;
1328;SDS011;658;48.820;9.354;2023-07-31T03:38:07;0.80;;;0.80;;
1328;SDS011;658;48.820;9.354;2023-07-31T03:42:08;0.63;;;0.63;;
1328;SDS011;658;48.820;9.354;2023-07-31T03:46:08;0.70;;;0.70;;
1328;SDS011;658;48.820;9.354;2023-07-31T03:50:13;1.00;;;0.90;;
1328;SDS011;658;48.820;9.354;2023-07-31T03:54:14;0.73;;;0.73;;
1328;SDS011;658;48.820;9.354;2023-07-31T03:58:14;0.90;;;0.90;;
1328;SDS011;658;48.820;9.354;2023-07-31T04:02:15;1.10;;;1.00;;
1328;SDS011;658;48.820;9.354;2023-07-31T04:06:16;0.90;;;0.90;;
1328;SDS011;658;48.820;9.354;2023-07-31T04:10:19;0.67;;;0.67;;
1328;SDS011;658;48.820;9.354;2023-07-31T04:14:19;1.10;;;1.00;;
1328;SDS011;658;48.820;9.354;2023-07-31T04:18:20;0.87;;;0.87;;
1328;SDS011;658;48.820;9.354;2023-07-31T04:22:24;0.80;;;0.80;;
1328;SDS011;658;48.820;9.354;2023-07-31T04:26:25;0.80;;;0.80;;
1328;SDS011;658;48.820;9.354;2023-07-31T04:30:25;0.90;;;0.90;;
1328;SDS011;658;48.820;9.354;2023-07-31T04:34:26;0.77;;;0.77;;
1328;SDS011;658;48.820;9.354;2023-07-31T04:38:26;0.70;;;0.70;;
1328;SDS011;658;48.820;9.354;2023-07-31T04:42:27;0.70;;;0.70;;
1328;SDS011;658;48.820;9.354;2023-07-31T04:46:27;0.70;;;0.70;;
1328;SDS011;658;48.820;9.354;2023-07-31T04:50:28;0.97;;;0.97;;
1328;SDS011;658;48.820;9.354;2023-07-31T04:54:30;0.80;;;0.80;;
1328;SDS011;658;48.820;9.354;2023-07-31T04:58:30;0.77;;;0.77;;
1328;SDS011;658;48.820;9.354;2023-07-31T05:02:31;0.80;;;0.80;;
1328;SDS011;658;48.820;9.354;2023-07-31T05:06:34;0.80;;;0.80;;
1328;SDS011;658;48.820;9.354;2023-07-31T05:10:34;0.70;;;0.70;;
1328;SDS011;658;48.820;9.354;2023-07-31T05:14:35;0.80;;;0.80;;
1328;SDS011;658;48.820;9.354;2023-07-31T05:18:35;0.80;;;0.80;;
1328;SDS011;658;48.820;9.354;2023-07-31T05:22:38;0.80;;;0.80;;
1328;SDS011;658;48.820;9.354;2023-07-31T05:26:39;0.90;;;0.90;;
1328;SDS011;658;48.820;9.354;2023-07-31T05:30:39;0.70;;;0.70;;
1328;SDS011;658;48.820;9.354;2023-07-31T05:34:40;0.97;;;0.97;;
1328;SDS011;658;48.820;9.354;2023-07-31T05:38:43;0.80;;;0.80;;
1328;SDS011;658;48.820;9.354;2023-07-31T05:42:44;0.80;;;0.80;;
1328;SDS011;658;48.820;9.354;2023-07-31T05:46:45;1.10;;;1.00;;
1328;SDS011;658;48.820;9.354;2023-07-31T05:50:45;1.10;;;1.00;;
1328;SDS011;658;48.820;9.354;2023-07-31T05:54:48;0.83;;;0.83;;
1328;SDS011;658;48.820;9.354;2023-07-31T05:58:51;0.70;;;0.70;;
1328;SDS011;658;48.820;9.354;2023-07-31T06:02:54;0.70;;;0.70;;
1328;SDS011;658;48.820;9.354;2023-07-31T06:06:57;0.80;;;0.80;;
1328;SDS011;658;48.820;9.354;2023-07-31T06:10:58;0.70;;;0.70;;
1328;SDS011;658;48.820;9.354;2023-07-31T06:14:58;0.90;;;0.90;;
1328;SDS011;658;48.820;9.354;2023-07-31T06:19:00;0.83;;;0.80;;
1328;SDS011;658;48.820;9.354;2023-07-31T06:23:03;0.70;;;0.70;;
1328;SDS011;658;48.820;9.354;2023-07-31T06:27:04;0.80;;;0.80;;
1328;SDS011;658;48.820;9.354;2023-07-31T06:31:05;0.80;;;0.80;;
1328;SDS011;658;48.820;9.354;2023-07-31T06:35:06;0.70;;;0.70;;
1328;SDS011;658;48.820;9.354;2023-07-31T06:39:07;1.13;;;1.03;;
1328;SDS011;658;48.820;9.354;2023-07-31T06:43:09;0.90;;;0.90;;
1328;SDS011;658;48.820;9.354;2023-07-31T06:47:09;0.80;;;0.80;;
1328;SDS011;658;48.820;9.354;2023-07-31T06:51:10;0.80;;;0.80;;
1328;SDS011;658;48.820;9.354;2023-07-31T06:55:17;0.93;;;0.93;;
1328;SDS011;658;48.820;9.354;2023-07-31T06:59:19;0.90;;;0.90;;
1328;SDS011;658;48.820;9.354;2023-07-31T07:03:20;0.80;;;0.80;;
1328;SDS011;658;48.820;9.354;2023-07-31T07:07:20;0.63;;;0.63;;
1328;SDS011;658;48.820;9.354;2023-07-31T07:11:21;0.87;;;0.77;;
1328;SDS011;658;48.820;9.354;2023-07-31T07:15:22;0.93;;;0.87;;
1328;SDS011;658;48.820;9.354;2023-07-31T07:19:22;1.07;;;0.97;;
1328;SDS011;658;48.820;9.354;2023-07-31T07:23:23;0.70;;;0.70;;
1328;SDS011;658;48.820;9.354;2023-07-31T07:27:24;0.80;;;0.80;;
1328;SDS011;658;48.820;9.354;2023-07-31T07:31:24;0.80;;;0.80;;
1328;SDS011;658;48.820;9.354;2023-07-31T07:35:25;0.90;;;0.90;;
1328;SDS011;658;48.820;9.354;2023-07-31T07:39:26;0.80;;;0.80;;
1328;SDS011;658;48.820;9.354;2023-07-31T07:43:26;0.90;;;0.90;;
1328;SDS011;658;48.820;9.354;2023-07-31T07:47:27;0.80;;;0.80;;
1328;SDS011;658;48.820;9.354;2023-07-31T07:51:27;0.90;;;0.80;;
1328;SDS011;658;48.820;9.354;2023-07-31T07:55:31;0.90;;;0.90;;
1328;SDS011;658;48.820;9.354;2023-07-31T07:59:32;0.80;;;0.80;;
1328;SDS011;658;48.820;9.354;2023-07-31T08:03:32;0.80;;;0.80;;
1328;SDS011;658;48.820;9.354;2023-07-31T08:07:33;0.77;;;0.77;;
1328;SDS011;658;48.820;9.354;2023-07-31T08:11:33;0.70;;;0.70;;
1328;SDS011;658;48.820;9.354;2023-07-31T08:15:34;0.83;;;0.83;;
1328;SDS011;658;48.820;9.354;2023-07-31T08:19:34;0.77;;;0.77;;
1328;SDS011;658;48.820;9.354;2023-07-31T08:23:35;1.00;;;1.00;;
1328;SDS011;658;48.820;9.354;2023-07-31T08:27:35;1.03;;;0.93;;
1328;SDS011;658;48.820;9.354;2023-07-31T08:31:36;0.70;;;0.70;;
1328;SDS011;658;48.820;9.354;2023-07-31T08:35:37;1.03;;;0.90;;
1328;SDS011;658;48.820;9.354;2023-07-31T08:39:37;0.93;;;0.90;;
1328;SDS011;658;48.820;9.354;2023-07-31T08:43:39;0.90;;;0.90;;
1328;SDS011;658;48.820;9.354;2023-07-31T08:47:42;0.70;;;0.70;;
1328;SDS011;658;48.820;9.354;2023-07-31T08:51:52;0.80;;;0.80;;
1328;SDS011;658;48.820;9.354;2023-07-31T08:55:53;1.00;;;1.00;;
1328;SDS011;658;48.820;9.354;2023-07-31T08:59:56;0.73;;;0.73;;
1328;SDS011;658;48.820;9.354;2023-07-31T09:03:59;0.90;;;0.90;;
1328;SDS011;658;48.820;9.354;2023-07-31T09:08:00;0.70;;;0.70;;
1328;SDS011;658;48.820;9.354;2023-07-31T09:12:04;1.03;;;0.90;;
1328;SDS011;658;48.820;9.354;2023-07-31T09:16:07;1.03;;;0.97;;
1328;SDS011;658;48.820;9.354;2023-07-31T09:20:19;1.73;;;0.87;;
1328;SDS011;658;48.820;9.354;2023-07-31T09:24:31;1.00;;;1.00;;
1328;SDS011;658;48.820;9.354;2023-07-31T09:28:35;1.47;;;0.90;;
1328;SDS011;658;48.820;9.354;2023-07-31T09:32:35;0.80;;;0.80;;
1328;SDS011;658;48.820;9.354;2023-07-31T09:36:44;0.90;;;0.90;;
1328;SDS011;658;48.820;9.354;2023-07-31T09:40:49;1.63;;;1.33;;
1328;SDS011;658;48.820;9.354;2023-07-31T09:44:50;0.90;;;0.90;;
1328;SDS011;658;48.820;9.354;2023-07-31T09:48:51;1.10;;;0.90;;
1328;SDS011;658;48.820;9.354;2023-07-31T09:52:52;1.43;;;1.33;;
1328;SDS011;658;48.820;9.354;2023-07-31T09:56:52;0.90;;;0.90;;
1328;SDS011;658;48.820;9.354;2023-07-31T10:00:55;1.40;;;1.13;;
1328;SDS011;658;48.820;9.354;2023-07-31T10:05:01;0.90;;;0.90;;
1328;SDS011;658;48.820;9.354;2023-07-31T10:09:06;0.70;;;0.70;;
1328;SDS011;658;48.820;9.354;2023-07-31T10:13:08;1.60;;;1.20;;
1328;SDS011;658;48.820;9.354;2023-07-31T10:17:09;0.80;;;0.80;;
1328;SDS011;658;48.820;9.354;2023-07-31T10:21:13;1.50;;;1.00;;
1328;SDS011;658;48.820;9.354;2023-07-31T10:25:15;1.07;;;0.97;;
1328;SDS011;658;48.820;9.354;2023-07-31T10:29:17;0.93;;;0.93;;
1328;SDS011;658;48.820;9.354;2023-07-31T10:33:19;1.20;;;1.10;;
1328;SDS011;658;48.820;9.354;2023-07-31T10:37:21;0.90;;;0.90;;
1328;SDS011;658;48.820;9.354;2023-07-31T10:41:29;0.90;;;0.90;;
1328;SDS011;658;48.820;9.354;2023-07-31T10:45:36;0.90;;;0.90;;
1328;SDS011;658;48.820;9.354;2023-07-31T10:49:37;0.90;;;0.90;;
1328;SDS011;658;48.820;9.354;2023-07-31T10:53:39;1.00;;;1.00;;
1328;SDS011;658;48.820;9.354;2023-07-31T10:57:43;1.00;;;0.90;;
1328;SDS011;658;48.820;9.354;2023-07-31T11:01:55;1.03;;;0.90;;
1328;SDS011;658;48.820;9.354;2023-07-31T11:06:02;1.30;;;1.20;;
1328;SDS011;658;48.820;9.354;2023-07-31T11:10:04;1.30;;;1.00;;
1328;SDS011;658;48.820;9.354;2023-07-31T11:14:05;1.07;;;0.97;;
1328;SDS011;658;48.820;9.354;2023-07-31T11:18:10;1.53;;;1.10;;
1328;SDS011;658;48.820;9.354;2023-07-31T11:22:11;1.20;;;1.10;;
1328;SDS011;658;48.820;9.354;2023-07-31T11:26:13;1.10;;;1.10;;
1328;SDS011;658;48.820;9.354;2023-07-31T11:30:14;1.10;;;1.00;;
1328;SDS011;658;48.820;9.354;2023-07-31T11:34:17;1.37;;;1.27;;
1328;SDS011;658;48.820;9.354;2023-07-31T11:38:21;1.10;;;1.00;;
1328;SDS011;658;48.820;9.354;2023-07-31T11:42:26;1.13;;;1.13;;
1328;SDS011;658;48.820;9.354;2023-07-31T11:46:27;1.43;;;1.33;;
1328;SDS011;658;48.820;9.354;2023-07-31T11:50:30;1.10;;;1.00;;
1328;SDS011;658;48.820;9.354;2023-07-31T11:54:33;1.20;;;1.10;;
1328;SDS011;658;48.820;9.354;2023-07-31T11:58:34;1.17;;;1.00;;
1328;SDS011;658;48.820;9.354;2023-07-31T12:02:36;0.87;;;0.87;;
1328;SDS011;658;48.820;9.354;2023-07-31T12:06:39;1.20;;;1.07;;
1328;SDS011;658;48.820;9.354;2023-07-31T12:10:40;1.57;;;1.07;;
1328;SDS011;658;48.820;9.354;2023-07-31T12:14:41;1.10;;;1.00;;
1328;SDS011;658;48.820;9.354;2023-07-31T12:18:43;1.33;;;1.07;;
1328;SDS011;658;48.820;9.354;2023-07-31T12:22:43;1.27;;;1.17;;
1328;SDS011;658;48.820;9.354;2023-07-31T12:26:47;0.70;;;0.70;;
1328;SDS011;658;48.820;9.354;2023-07-31T12:30:49;1.00;;;0.90;;
1328;SDS011;658;48.820;9.354;2023-07-31T12:34:49;1.20;;;1.10;;
1328;SDS011;658;48.820;9.354;2023-07-31T12:38:51;1.60;;;1.40;;
1328;SDS011;658;48.820;9.354;2023-07-31T12:42:52;0.87;;;0.87;;
1328;SDS011;658;48.820;9.354;2023-07-31T12:46:53;1.30;;;1.20;;
1328;SDS011;658;48.820;9.354;2023-07-31T12:50:53;1.13;;;1.10;;
1328;SDS011;658;48.820;9.354;2023-07-31T12:54:54;1.30;;;1.20;;
1328;SDS011;658;48.820;9.354;2023-07-31T12:58:55;1.20;;;1.07;;
1328;SDS011;658;48.820;9.354;2023-07-31T13:02:55;1.17;;;1.07;;
1328;SDS011;658;48.820;9.354;2023-07-31T13:06:56;1.17;;;1.00;;
1328;SDS011;658;48.820;9.354;2023-07-31T13:10:56;1.23;;;1.10;;
1328;SDS011;658;48.820;9.354;2023-07-31T13:14:57;1.40;;;1.00;;
1328;SDS011;658;48.820;9.354;2023-07-31T13:18:57;1.10;;;1.10;;
1328;SDS011;658;48.820;9.354;2023-07-31T13:22:58;1.20;;;1.10;;
1328;SDS011;658;48.820;9.354;2023-07-31T13:26:59;1.37;;;1.27;;
1328;SDS011;658;48.820;9.354;2023-07-31T13:30:59;1.30;;;1.20;;
1328;SDS011;658;48.820;9.354;2023-07-31T13:35:01;1.23;;;1.10;;
1328;SDS011;658;48.820;9.354;2023-07-31T13:39:01;1.13;;;1.03;;
1328;SDS011;658;48.820;9.354;2023-07-31T13:43:05;1.30;;;1.20;;
1328;SDS011;658;48.820;9.354;2023-07-31T13:47:05;1.57;;;1.20;;
1328;SDS011;658;48.820;9.354;2023-07-31T13:51:06;1.07;;;0.93;;
1328;SDS011;658;48.820;9.354;2023-07-31T13:55:07;1.00;;;0.90;;
1328;SDS011;658;48.820;9.354;2023-07-31T13:59:10;1.30;;;1.20;;
1328;SDS011;658;48.820;9.354;2023-07-31T14:03:11;1.10;;;1.00;;
1328;SDS011;658;48.820;9.354;2023-07-31T14:07:12;1.33;;;1.23;;
1328;SDS011;658;48.820;9.354;2023-07-31T14:11:12;1.10;;;1.00;;
1328;SDS011;658;48.820;9.354;2023-07-31T14:15:13;1.30;;;1.20;;
1328;SDS011;658;48.820;9.354;2023-07-31T14:19:14;1.27;;;1.17;;
1328;SDS011;658;48.820;9.354;2023-07-31T14:23:14;1.20;;;1.10;;
1328;SDS011;658;48.820;9.354;2023-07-31T14:27:15;0.93;;;0.93;;
1328;SDS011;658;48.820;9.354;2023-07-31T14:31:18;0.90;;;0.90;;
1328;SDS011;658;48.820;9.354;2023-07-31T14:35:18;1.20;;;1.07;;
1328;SDS011;658;48.820;9.354;2023-07-31T14:39:19;1.10;;;1.10;;
1328;SDS011;658;48.820;9.354;2023-07-31T14:43:22;1.30;;;1.20;;
1328;SDS011;658;48.820;9.354;2023-07-31T14:47:23;1.17;;;1.07;;
1328;SDS011;658;48.820;9.354;2023-07-31T14:51:23;1.57;;;1.30;;
1328;SDS011;658;48.820;9.354;2023-07-31T14:55:24;1.63;;;1.27;;
1328;SDS011;658;48.820;9.354;2023-07-31T14:59:25;1.10;;;1.10;;
1328;SDS011;658;48.820;9.354;2023-07-31T15:03:30;1.83;;;1.40;;
1328;SDS011;658;48.820;9.354;2023-07-31T15:07:33;1.07;;;0.97;;
1328;SDS011;658;48.820;9.354;2023-07-31T15:11:34;1.40;;;1.30;;
1328;SDS011;658;48.820;9.354;2023-07-31T15:15:35;1.50;;;1.40;;
1328;SDS011;658;48.820;9.354;2023-07-31T15:19:35;1.40;;;1.30;;
1328;SDS011;658;48.820;9.354;2023-07-31T15:23:36;1.40;;;1.30;;
1328;SDS011;658;48.820;9.354;2023-07-31T15:27:39;1.00;;;1.00;;
1328;SDS011;658;48.820;9.354;2023-07-31T15:31:40;1.40;;;1.27;;
1328;SDS011;658;48.820;9.354;2023-07-31T15:35:41;1.47;;;1.37;;
1328;SDS011;658;48.820;9.354;2023-07-31T15:39:43;1.23;;;1.13;;
1328;SDS011;658;48.820;9.354;2023-07-31T15:43:43;1.33;;;1.23;;
1328;SDS011;658;48.820;9.354;2023-07-31T15:47:44;1.13;;;1.00;;
1328;SDS011;658;48.820;9.354;2023-07-31T15:51:45;1.50;;;1.40;;
1328;SDS011;658;48.820;9.354;2023-07-31T15:55:45;1.50;;;1.40;;
1328;SDS011;658;48.820;9.354;2023-07-31T15:59:46;1.20;;;1.10;;
1328;SDS011;658;48.820;9.354;2023-07-31T16:03:49;1.23;;;1.13;;
1328;SDS011;658;48.820;9.354;2023-07-31T16:07:49;1.30;;;1.20;;
1328;SDS011;658;48.820;9.354;2023-07-31T16:11:50;1.40;;;1.30;;
1328;SDS011;658;48.820;9.354;2023-07-31T16:15:51;1.43;;;1.33;;
1328;SDS011;658;48.820;9.354;2023-07-31T16:19:53;1.60;;;1.30;;
1328;SDS011;658;48.820;9.354;2023-07-31T16:23:54;1.37;;;1.27;;
1328;SDS011;658;48.820;9.354;2023-07-31T16:27:54;1.60;;;1.50;;
1328;SDS011;658;48.820;9.354;2023-07-31T16:31:55;1.40;;;1.30;;
1328;SDS011;658;48.820;9.354;2023-07-31T16:35:56;1.00;;;1.00;;
1328;SDS011;658;48.820;9.354;2023-07-31T16:39:56;1.30;;;1.20;;
1328;SDS011;658;48.820;9.354;2023-07-31T16:43:59;1.27;;;1.17;;
1328;SDS011;658;48.820;9.354;2023-07-31T16:48:00;1.40;;;1.30;;
1328;SDS011;658;48.820;9.354;2023-07-31T16:52:02;1.20;;;1.10;;
1328;SDS011;658;48.820;9.354;2023-07-31T16:56:05;1.07;;;1.07;;
1328;SDS011;658;48.820;9.354;2023-07-31T17:00:06;1.33;;;1.23;;
1328;SDS011;658;48.820;9.354;2023-07-31T17:04:07;1.37;;;1.10;;
1328;SDS011;658;48.820;9.354;2023-07-31T17:08:08;1.40;;;1.30;;
1328;SDS011;658;48.820;9.354;2023-07-31T17:12:08;1.53;;;1.43;;
1328;SDS011;658;48.820;9.354;2023-07-31T17:16:10;1.23;;;1.10;;
1328;SDS011;658;48.820;9.354;2023-07-31T17:20:13;2.30;;;1.47;;
1328;SDS011;658;48.820;9.354;2023-07-31T17:24:13;1.20;;;1.10;;
1328;SDS011;658;48.820;9.354;2023-07-31T17:28:14;2.30;;;1.87;;
1328;SDS011;658;48.820;9.354;2023-07-31T17:32:15;1.40;;;1.30;;
1328;SDS011;658;48.820;9.354;2023-07-31T17:36:15;1.10;;;1.10;;
1328;SDS011;658;48.820;9.354;2023-07-31T17:40:16;1.63;;;1.53;;
1328;SDS011;658;48.820;9.354;2023-07-31T17:44:16;1.30;;;1.20;;
1328;SDS011;658;48.820;9.354;2023-07-31T17:48:17;1.30;;;1.20;;
1328;SDS011;658;48.820;9.354;2023-07-31T17:52:17;1.30;;;1.20;;
1328;SDS011;658;48.820;9.354;2023-07-31T17:56:21;1.10;;;1.10;;
1328;SDS011;658;48.820;9.354;2023-07-31T18:00:21;1.30;;;1.20;;
1328;SDS011;658;48.820;9.354;2023-07-31T18:04:22;1.40;;;1.30;;
1328;SDS011;658;48.820;9.354;2023-07-31T18:08:23;1.13;;;1.03;;
1328;SDS011;658;48.820;9.354;2023-07-31T18:12:23;1.40;;;1.30;;
1328;SDS011;658;48.820;9.354;2023-07-31T18:16:24;1.13;;;1.10;;
1328;SDS011;658;48.820;9.354;2023-07-31T18:20:25;1.50;;;1.40;;
1328;SDS011;658;48.820;9.354;2023-07-31T18:24:25;1.03;;;0.90;;
1328;SDS011;658;48.820;9.354;2023-07-31T18:28:28;1.30;;;1.20;;
1328;SDS011;658;48.820;9.354;2023-07-31T18:32:29;1.33;;;1.20;;
1328;SDS011;658;48.820;9.354;2023-07-31T18:36:29;1.40;;;1.30;;
1328;SDS011;658;48.820;9.354;2023-07-31T18:40:32;1.43;;;1.33;;
1328;SDS011;658;48.820;9.354;2023-07-31T18:44:33;1.40;;;1.30;;
1328;SDS011;658;48.820;9.354;2023-07-31T18:48:33;1.60;;;1.50;;
1328;SDS011;658;48.820;9.354;2023-07-31T18:52:34;1.70;;;1.60;;
1328;SDS011;658;48.820;9.354;2023-07-31T18:56:34;1.07;;;1.00;;
1328;SDS011;658;48.820;9.354;2023-07-31T19:00:35;1.53;;;1.43;;
1328;SDS011;658;48.820;9.354;2023-07-31T19:04:36;1.40;;;1.30;;
1328;SDS011;658;48.820;9.354;2023-07-31T19:08:36;1.57;;;1.47;;
1328;SDS011;658;48.820;9.354;2023-07-31T19:12:37;1.57;;;1.47;;
1328;SDS011;658;48.820;9.354;2023-07-31T19:16:38;1.50;;;1.40;;
1328;SDS011;658;48.820;9.354;2023-07-31T19:20:38;1.30;;;1.20;;
1328;SDS011;658;48.820;9.354;2023-07-31T19:24:39;1.50;;;1.40;;
1328;SDS011;658;48.820;9.354;2023-07-31T19:28:39;1.60;;;1.50;;
1328;SDS011;658;48.820;9.354;2023-07-31T19:32:40;1.73;;;1.63;;
1328;SDS011;658;48.820;9.354;2023-07-31T19:36:40;1.30;;;1.20;;
1328;SDS011;658;48.820;9.354;2023-07-31T19:40:42;1.33;;;1.23;;
1328;SDS011;658;48.820;9.354;2023-07-31T19:44:42;1.50;;;1.40;;
1328;SDS011;658;48.820;9.354;2023-07-31T19:48:43;1.37;;;1.27;;
1328;SDS011;658;48.820;9.354;2023-07-31T19:52:44;1.40;;;1.30;;
1328;SDS011;658;48.820;9.354;2023-07-31T19:56:46;1.30;;;1.20;;
1328;SDS011;658;48.820;9.354;2023-07-31T20:00:48;1.50;;;1.40;;
1328;SDS011;658;48.820;9.354;2023-07-31T20:04:49;1.20;;;1.10;;
1328;SDS011;658;48.820;9.354;2023-07-31T20:08:49;1.47;;;1.37;;
1328;SDS011;658;48.820;9.354;2023-07-31T20:12:52;1.37;;;1.27;;
1328;SDS011;658;48.820;9.354;2023-07-31T20:16:53;1.70;;;1.60;;
1328;SDS011;658;48.820;9.354;2023-07-31T20:20:56;1.40;;;1.30;;
1328;SDS011;658;48.820;9.354;2023-07-31T20:24:56;1.40;;;1.30;;
1328;SDS011;658;48.820;9.354;2023-07-31T20:28:59;1.37;;;1.27;;
1328;SDS011;658;48.820;9.354;2023-07-31T20:33:00;1.20;;;1.20;;
1328;SDS011;658;48.820;9.354;2023-07-31T20:37:01;1.57;;;1.30;;
1328;SDS011;658;48.820;9.354;2023-07-31T20:41:01;1.20;;;1.10;;
1328;SDS011;658;48.820;9.354;2023-07-31T20:45:02;1.50;;;1.40;;
1328;SDS011;658;48.820;9.354;2023-07-31T20:49:03;1.40;;;1.30;;
1328;SDS011;658;48.820;9.354;2023-07-31T20:53:04;1.30;;;1.20;;
1328;SDS011;658;48.820;9.354;2023-07-31T20:57:05;1.37;;;1.27;;
1328;SDS011;658;48.820;9.354;2023-07-31T21:01:08;1.70;;;1.60;;
1328;SDS011;658;48.820;9.354;2023-07-31T21:05:09;1.63;;;1.47;;
1328;SDS011;658;48.820;9.354;2023-07-31T21:09:09;1.50;;;1.40;;
1328;SDS011;658;48.820;9.354;2023-07-31T21:13:10;1.47;;;1.37;;
1328;SDS011;658;48.820;9.354;2023-07-31T21:17:11;1.33;;;1.23;;
1328;SDS011;658;48.820;9.354;2023-07-31T21:21:11;1.50;;;1.40;;
1328;SDS011;658;48.820;9.354;2023-07-31T21:25:12;1.87;;;1.57;;
1328;SDS011;658;48.820;9.354;2023-07-31T21:29:13;1.60;;;1.50;;
1328;SDS011;658;48.820;9.354;2023-07-31T21:33:13;1.50;;;1.40;;
1328;SDS011;658;48.820;9.354;2023-07-31T21:37:14;1.63;;;1.53;;
1328;SDS011;658;48.820;9.354;2023-07-31T21:41:14;1.50;;;1.40;;
1328;SDS011;658;48.820;9.354;2023-07-31T21:45:15;2.00;;;1.73;;
1328;SDS011;658;48.820;9.354;2023-07-31T21:49:19;1.63;;;1.53;;
1328;SDS011;658;48.820;9.354;2023-07-31T21:53:22;1.27;;;1.07;;
1328;SDS011;658;48.820;9.354;2023-07-31T21:57:23;1.50;;;1.40;;
1328;SDS011;658;48.820;9.354;2023-07-31T22:01:26;1.57;;;1.47;;
1328;SDS011;658;48.820;9.354;2023-07-31T22:05:26;1.30;;;1.20;;
1328;SDS011;658;48.820;9.354;2023-07-31T22:09:29;1.17;;;1.07;;
1328;SDS011;658;48.820;9.354;2023-07-31T22:13:30;1.60;;;1.50;;
1328;SDS011;658;48.820;9.354;2023-07-31T22:17:31;1.30;;;1.30;;
1328;SDS011;658;48.820;9.354;2023-07-31T22:21:32;1.30;;;1.20;;
1328;SDS011;658;48.820;9.354;2023-07-31T22:25:33;1.43;;;1.30;;
1328;SDS011;658;48.820;9.354;2023-07-31T22:29:33;1.60;;;1.50;;
1328;SDS011;658;48.820;9.354;2023-07-31T22:33:34;1.20;;;1.17;;
1328;SDS011;658;48.820;9.354;2023-07-31T22:37:35;1.43;;;1.33;;
1328;SDS011;658;48.820;9.354;2023-07-31T22:41:36;1.37;;;1.27;;
1328;SDS011;658;48.820;9.354;2023-07-31T22:45:36;2.17;;;1.50;;
1328;SDS011;658;48.820;9.354;2023-07-31T22:49:37;1.23;;;1.13;;
1328;SDS011;658;48.820;9.354;2023-07-31T22:53:40;1.20;;;1.10;;
1328;SDS011;658;48.820;9.354;2023-07-31T22:57:41;1.30;;;1.20;;
1328;SDS011;658;48.820;9.354;2023-07-31T23:01:44;1.40;;;1.30;;
1328;SDS011;658;48.820;9.354;2023-07-31T23:05:44;1.50;;;1.40;;
1328;SDS011;658;48.820;9.354;2023-07-31T23:09:45;1.43;;;1.33;;
1328;SDS011;658;48.820;9.354;2023-07-31T23:13:51;1.77;;;1.67;;
1328;SDS011;658;48.820;9.354;2023-07-31T23:17:51;1.50;;;1.40;;
1328;SDS011;658;48.820;9.354;2023-07-31T23:21:52;1.20;;;1.10;;
1328;SDS011;658;48.820;9.354;2023-07-31T23:25:52;1.50;;;1.40;;
1328;SDS011;658;48.820;9.354;2023-07-31T23:29:55;1.40;;;1.30;;
1328;SDS011;658;48.820;9.354;2023-07-31T23:33:56;1.60;;;1.50;;
1328;SDS011;658;48.820;9.354;2023-07-31T23:37:56;1.33;;;1.23;;
1328;SDS011;658;48.820;9.354;2023-07-31T23:41:57;1.70;;;1.60;;
1328;SDS011;658;48.820;9.354;2023-07-31T23:46:00;1.20;;;1.17;;
1328;SDS011;658;48.820;9.354;2023-07-31T23:50:01;1.40;;;1.30;;
1328;SDS011;658;48.820;9.354;2023-07-31T23:54:01;1.17;;;1.07;;
1328;SDS011;658;48.820;9.354;2023-07-31T23:58:02;1.40;;;1.30;;
